createdAt,value
2023-05-19T00:03:03.553Z,69.90
2023-05-19T00:08:04.468Z,70.00
2023-05-19T00:13:03.545Z,70.60
2023-05-19T00:18:02.405Z,70.00
2023-05-19T00:23:01.989Z,71.50
2023-05-19T00:28:00.600Z,71.10
2023-05-19T00:32:59.269Z,72.20
2023-05-19T00:37:57.813Z,71.40
2023-05-19T00:42:57.737Z,71.80
2023-05-19T00:47:56.361Z,71.70
2023-05-19T00:52:54.965Z,72.20
2023-05-19T00:57:54.236Z,72.20
2023-05-19T01:02:54.623Z,71.90
2023-05-19T01:07:54.001Z,71.40
2023-05-19T01:12:52.554Z,72.60
2023-05-19T01:18:01.396Z,72.60
2023-05-19T01:23:36.669Z,73.00
2023-05-19T01:29:07.998Z,72.70
2023-05-19T01:34:08.841Z,73.30
2023-05-19T01:39:08.277Z,73.50
2023-05-19T01:44:07.365Z,73.20
2023-05-19T01:49:07.963Z,74.30
2023-05-19T01:54:06.518Z,73.70
2023-05-19T01:59:14.209Z,74.10
2023-05-19T02:04:24.787Z,74.70
2023-05-19T02:09:28.339Z,74.20
2023-05-19T02:14:32.481Z,74.80
2023-05-19T02:19:33.829Z,74.80
2023-05-19T02:24:32.358Z,74.90
2023-05-19T02:29:31.141Z,74.80
2023-05-19T02:34:29.349Z,74.80
2023-05-19T02:39:35.300Z,74.50
2023-05-19T02:44:33.952Z,75.10
2023-05-19T02:49:36.236Z,75.00
2023-05-19T02:54:36.695Z,75.20
2023-05-19T02:59:35.342Z,75.30
2023-05-19T03:04:41.896Z,75.30
2023-05-19T03:09:42.175Z,75.40
2023-05-19T03:14:41.499Z,76.40
2023-05-19T03:19:39.979Z,75.20
2023-05-19T03:24:38.484Z,75.60
2023-05-19T03:29:38.386Z,75.90
2023-05-19T03:34:36.868Z,75.80
2023-05-19T03:39:35.722Z,75.00
2023-05-19T03:44:34.387Z,76.00
2023-05-19T03:49:34.597Z,76.00
2023-05-19T03:54:35.908Z,76.40
2023-05-19T03:59:35.700Z,76.30
2023-05-19T04:04:37.690Z,76.80
2023-05-19T04:09:37.929Z,77.00
2023-05-19T04:14:36.459Z,77.30
2023-05-19T04:19:36.379Z,77.50
2023-05-19T04:24:35.137Z,77.80
2023-05-19T04:29:35.705Z,78.10
2023-05-19T04:34:35.349Z,78.10
2023-05-19T04:39:39.166Z,78.60
2023-05-19T04:44:40.450Z,79.00
2023-05-19T04:49:39.868Z,79.00
2023-05-19T04:54:40.249Z,79.40
2023-05-19T04:59:38.945Z,79.30
2023-05-19T05:04:42.898Z,79.70
2023-05-19T05:09:44.092Z,82.20
2023-05-19T05:14:43.297Z,85.20
2023-05-19T05:19:42.328Z,85.40
2023-05-19T05:24:41.473Z,83.50
2023-05-19T05:29:41.960Z,84.10
2023-05-19T05:34:42.318Z,83.00
2023-05-19T05:39:40.631Z,84.10
2023-05-19T05:44:39.259Z,82.80
2023-05-19T05:49:40.987Z,85.00
2023-05-19T05:54:42.148Z,84.60
2023-05-19T05:59:41.581Z,86.60
2023-05-19T06:04:42.168Z,86.10
2023-05-19T06:09:40.750Z,85.10
2023-05-19T06:14:40.990Z,83.90
2023-05-19T06:19:50.269Z,85.40
2023-05-19T06:24:49.130Z,85.40
2023-05-19T06:29:47.602Z,84.70
2023-05-19T06:34:46.670Z,84.60
2023-05-19T06:39:46.581Z,84.20
2023-05-19T06:44:45.498Z,80.90
2023-05-19T06:49:44.362Z,78.20
2023-05-19T06:54:42.909Z,79.80
2023-05-19T06:59:43.950Z,78.20
2023-05-19T07:04:43.480Z,81.40
2023-05-19T07:09:45.312Z,72.70
2023-05-19T07:14:46.175Z,72.50
2023-05-19T07:19:45.338Z,70.70
2023-05-19T07:24:44.296Z,67.90
2023-05-19T07:29:42.737Z,70.00
2023-05-19T07:34:42.723Z,70.20
2023-05-19T07:39:40.917Z,72.70
2023-05-19T07:44:39.678Z,73.20
2023-05-19T07:49:38.175Z,72.00
2023-05-19T07:54:38.032Z,67.90
2023-05-19T07:59:36.555Z,67.50
2023-05-19T08:04:35.303Z,67.70
2023-05-19T08:09:33.917Z,66.10
2023-05-19T08:14:35.221Z,67.50
2023-05-19T08:19:33.742Z,68.30
2023-05-19T08:24:33.159Z,66.20
2023-05-19T08:29:32.383Z,65.00
2023-05-19T08:34:32.742Z,66.00
2023-05-19T08:39:33.505Z,62.80
2023-05-19T08:44:32.616Z,64.80
2023-05-19T08:49:35.132Z,59.80
2023-05-19T08:54:44.117Z,60.80
2023-05-19T08:59:44.560Z,59.70
2023-05-19T09:04:46.385Z,59.80
2023-05-19T09:09:45.212Z,59.90
2023-05-19T09:14:43.922Z,60.10
2023-05-19T09:19:48.465Z,59.50
2023-05-19T09:24:47.216Z,59.40
2023-05-19T09:29:45.768Z,59.60
2023-05-19T09:34:45.615Z,59.30
2023-05-19T09:39:49.708Z,59.40
2023-05-19T09:44:51.617Z,58.80
2023-05-19T09:49:52.530Z,58.50
2023-05-19T09:54:52.236Z,57.50
2023-05-19T09:59:51.009Z,56.20
2023-05-19T10:04:51.829Z,56.10
2023-05-19T10:09:51.581Z,56.50
2023-05-19T10:14:53.374Z,57.00
2023-05-19T10:19:56.261Z,56.90
2023-05-19T10:24:56.294Z,56.10
2023-05-19T10:29:57.893Z,56.60
2023-05-19T10:35:14.139Z,56.90
2023-05-19T10:40:20.438Z,55.40
2023-05-19T10:45:21.321Z,55.60
2023-05-19T10:50:22.275Z,55.00
2023-05-19T10:55:47.945Z,56.20
2023-05-19T11:00:46.444Z,55.90
2023-05-19T11:05:46.829Z,55.30
2023-05-19T11:10:46.710Z,55.80
2023-05-19T11:15:47.258Z,56.10
2023-05-19T11:20:59.015Z,56.10
2023-05-19T11:25:57.748Z,55.40
2023-05-19T11:30:58.061Z,55.00
2023-05-19T11:35:59.406Z,54.00
2023-05-19T11:40:58.320Z,55.10
2023-05-19T11:45:57.247Z,55.00
2023-05-19T11:50:57.194Z,55.30
2023-05-19T11:55:55.330Z,55.10
2023-05-19T12:00:54.185Z,55.70
2023-05-19T12:05:53.225Z,55.60
2023-05-19T12:10:54.451Z,55.40
2023-05-19T12:15:53.745Z,55.40
2023-05-19T12:20:52.436Z,55.00
2023-05-19T12:25:52.936Z,54.60
2023-05-19T12:30:52.904Z,55.20
2023-05-19T12:35:51.506Z,55.10
2023-05-19T12:40:53.610Z,55.50
2023-05-19T12:45:52.750Z,55.10
2023-05-19T12:50:53.535Z,55.80
2023-05-19T12:55:55.285Z,55.80
2023-05-19T13:00:59.996Z,55.10
2023-05-19T13:06:00.084Z,55.20
2023-05-19T13:10:59.996Z,55.10
2023-05-19T13:15:58.493Z,55.80
2023-05-19T13:20:57.002Z,55.60
2023-05-19T13:25:55.488Z,55.40
2023-05-19T13:30:55.603Z,55.80
2023-05-19T13:35:54.399Z,56.20
2023-05-19T13:40:52.605Z,56.20
2023-05-19T13:45:51.134Z,56.70
2023-05-19T13:50:53.060Z,56.40
2023-05-19T13:55:53.491Z,56.60
2023-05-19T14:00:54.962Z,57.00
2023-05-19T14:05:54.963Z,57.60
2023-05-19T14:10:53.695Z,57.90
2023-05-19T14:15:52.292Z,58.10
2023-05-19T14:20:50.843Z,58.00
2023-05-19T14:25:50.754Z,58.20
2023-05-19T14:30:49.294Z,59.10
2023-05-19T14:35:48.160Z,59.10
2023-05-19T14:40:48.666Z,59.10
2023-05-19T14:45:48.517Z,59.20
2023-05-19T14:50:49.442Z,59.80
2023-05-19T14:55:49.983Z,60.50
2023-05-19T15:00:50.680Z,61.20
2023-05-19T15:12:13.448Z,61.50
2023-05-19T15:17:13.630Z,62.30
2023-05-19T15:22:12.254Z,63.10
2023-05-19T15:27:10.470Z,63.70
2023-05-19T15:32:10.186Z,64.10
2023-05-19T15:37:10.095Z,64.60
2023-05-19T15:42:08.421Z,65.30
2023-05-19T15:47:07.158Z,65.00
2023-05-19T15:52:06.187Z,64.50
2023-05-19T15:57:06.246Z,63.00
2023-05-19T16:02:04.629Z,63.20
2023-05-19T16:07:02.854Z,63.90
2023-05-19T16:12:01.422Z,64.60
2023-05-19T16:17:01.005Z,64.80
2023-05-19T16:28:48.206Z,66.00
2023-05-19T16:33:47.761Z,66.80
2023-05-19T16:38:46.248Z,67.20
2023-05-19T16:43:44.765Z,66.80
2023-05-19T16:48:43.299Z,66.40
2023-05-19T16:53:42.822Z,66.60
2023-05-19T16:58:41.345Z,66.60
2023-05-19T17:03:39.983Z,66.90
2023-05-19T17:08:38.571Z,67.10
2023-05-19T17:13:38.110Z,67.30
2023-05-19T17:18:36.650Z,67.10
2023-05-19T17:23:34.804Z,67.00
2023-05-19T17:28:33.052Z,67.50
2023-05-19T17:33:33.014Z,67.50
2023-05-19T17:38:32.781Z,67.60
2023-05-19T17:43:31.277Z,68.20
2023-05-19T17:48:29.781Z,68.50
2023-05-19T17:53:31.207Z,68.70
2023-05-19T17:58:30.499Z,69.30
2023-05-19T18:03:29.521Z,70.10
2023-05-19T18:08:29.986Z,70.70
2023-05-19T18:13:28.497Z,71.40
2023-05-19T18:18:27.010Z,71.90
2023-05-19T18:23:25.283Z,72.10
2023-05-19T18:28:25.596Z,72.90
2023-05-19T18:33:25.896Z,73.50
2023-05-19T18:38:25.445Z,74.10
2023-05-19T18:43:25.375Z,74.20
2023-05-19T18:48:25.879Z,75.20
2023-05-19T18:53:24.082Z,74.60
2023-05-19T18:58:22.659Z,74.60
2023-05-19T19:03:23.607Z,74.80
2023-05-19T19:08:22.206Z,74.90
2023-05-19T19:13:20.798Z,75.10
2023-05-19T19:18:19.332Z,75.20
2023-05-19T19:23:19.337Z,75.70
2023-05-19T19:28:18.095Z,76.00
2023-05-19T19:33:16.775Z,76.40
2023-05-19T19:38:15.527Z,76.70
2023-05-19T19:43:15.081Z,77.20
2023-05-19T19:48:13.940Z,77.90
2023-05-19T19:53:12.468Z,78.10
2023-05-19T19:58:11.034Z,78.90
2023-05-19T20:03:12.247Z,79.00
2023-05-19T20:08:11.046Z,79.40
2023-05-19T20:13:09.875Z,79.40
2023-05-19T20:18:08.539Z,80.00
2023-05-19T20:23:08.542Z,79.70
2023-05-19T20:28:07.112Z,79.70
2023-05-19T20:33:05.893Z,79.10
2023-05-19T20:38:04.624Z,78.50
2023-05-19T20:43:04.080Z,77.20
2023-05-19T20:48:03.119Z,76.10
2023-05-19T20:53:02.242Z,75.10
2023-05-19T20:58:00.768Z,74.30
2023-05-19T21:03:00.701Z,73.10
2023-05-19T21:07:59.221Z,72.80
2023-05-19T21:12:59.130Z,71.50
2023-05-19T21:17:57.721Z,72.10
2023-05-19T21:22:57.988Z,70.20
2023-05-19T21:27:56.431Z,69.00
2023-05-19T21:32:54.648Z,68.40
2023-05-19T21:37:53.176Z,69.40
2023-05-19T21:42:53.034Z,68.40
2023-05-19T21:47:51.521Z,67.50
2023-05-19T21:52:50.118Z,68.90
2023-05-19T21:57:48.604Z,66.80
2023-05-19T22:02:48.578Z,68.00
2023-05-19T22:07:48.500Z,67.40
2023-05-19T22:12:46.996Z,66.10
2023-05-19T22:17:45.535Z,67.90
2023-05-19T22:22:45.420Z,68.40
2023-05-19T22:27:43.894Z,67.50
2023-05-19T22:32:42.431Z,65.80
2023-05-19T22:37:41.114Z,66.10
2023-05-19T22:42:41.024Z,66.50
2023-05-19T22:47:39.657Z,67.60
2023-05-19T22:52:38.008Z,66.00
2023-05-19T22:57:36.840Z,66.80
2023-05-19T23:02:36.495Z,67.00
2023-05-19T23:07:34.702Z,68.20
2023-05-19T23:12:33.312Z,68.80
2023-05-19T23:17:31.824Z,68.30
2023-05-19T23:22:31.732Z,67.40
2023-05-19T23:27:30.271Z,69.40
2023-05-19T23:32:29.009Z,68.90
2023-05-19T23:37:27.755Z,68.00
2023-05-19T23:42:27.698Z,70.00
2023-05-19T23:47:26.321Z,70.30
2023-05-19T23:52:24.846Z,69.60
2023-05-19T23:57:23.354Z,69.90
